KFWSKADS

Guest
Details From KFWS - Fort Worth Spinks
To KADS - Addison
Flight Number -
Tags Decoded
Created
Modified
Stats Distance 40 nm / 74 km
Max Altitude 0 ft / 0 m
Waypoints 4
Social Downloads 2
Likes 0
Share VATSIM

Download

Looking for another format? Having issues loading an existing format? Contact us
Advertisement - Login to hide

Notes

Decoded

Route

KFWS FUZ CVE KADS

ID Type Via Altitude Latitude Longitude Leg Dist Tot Dist Heading (true) Name
O KFWS APT - 0 ft / 0 m 32.57253˚ -97.30642˚ - 0 nm - Ft. Worth Spinks
FUZ VOR - 0 ft / 0 m 32.88944˚ -97.17942˚ 20 nm 20 nm 19° / 19° RANGER VORTAC
CVE VOR - 0 ft / 0 m 32.89031˚ -96.90397˚ 13 nm 33 nm 90° / 90° COWBOY VOR-DME
O KADS APT - 0 ft / 0 m 32.97784˚ -96.84051˚ 6 nm 40 nm 31° / 31° -

Altitude Profile

Advertisement - Login to hide

KFWS

Details ICAO KFWS
Name Ft. Worth Spinks
Region United States
Timezone America/Chicago (UTC-6.0)
Stats Elevation 700 ft / 213 m (AMSL)
Location 32.565503° -97.308080°
Runways 2
Magnetic Variation 3.597° E

METAR

KFWS 150815Z AUTO 00000KT 10SM CLR 04/M02 A3025 RMK AO2 T00411025

Decode

TAF

Not found

Departure Runways

ID Width Length Bearing (true) Bearing (mag) Surface Threshold Offset Overrun Length
17L 59 ft / 18 m 4,014 ft / 1,223 m 180.00° 176.40° Grass 0 ft / 0 m 0 ft / 0 m
17R 98 ft / 30 m 6,020 ft / 1,835 m 180.11° 176.51° Asphalt 0 ft / 0 m 0 ft / 0 m
35L 98 ft / 30 m 6,020 ft / 1,835 m 0.11° 356.51° Asphalt 0 ft / 0 m 0 ft / 0 m
35R 59 ft / 18 m 4,014 ft / 1,223 m 0.00° 356.40° Grass 0 ft / 0 m 0 ft / 0 m

KADS

Details ICAO KADS (ADS)
Name ADDISON
Region United States
Timezone America/Chicago (UTC-6.0)
Stats Elevation 644 ft / 196 m (AMSL)
Location 32.968558° -96.836454°
Runways 1
Magnetic Variation 3.312° E

METAR

KADS 150815Z AUTO 00000KT 10SM CLR 05/M02 A3024 RMK AO2 T00471017

Decode

TAF

Not found

Destination Runways

ID Width Length Bearing (true) Bearing (mag) Surface Threshold Offset Overrun Length
15 100 ft / 30 m 7,218 ft / 2,200 m 159.87° 156.56° Asphalt 979 ft / 298 m 0 ft / 0 m
33 100 ft / 30 m 7,218 ft / 2,200 m 339.87° 336.56° Asphalt 771 ft / 235 m 0 ft / 0 m

Approach Navaids

Runway Type Ident Frequency Range Bearing (true) Bearing (mag) Slope Elevation
15 Localiser IADS 110.10 MHz 18 nm / 33 km 159.87° 156.56° - 630 ft / 192 m (AMSL)
15 Glidescope IADS 110.10 MHz 10 nm / 19 km 159.87° 156.56° 3.00° 629 ft / 192 m (AMSL)
15 DME IADS 110.10 MHz 18 nm / 33 km - - - 643 ft / 196 m (AMSL)
33 Localiser ITBQ 110.10 MHz 18 nm / 33 km 339.87° 336.56° - 639 ft / 195 m (AMSL)
33 Glidescope ITBQ 110.10 MHz 10 nm / 19 km 339.87° 336.56° 3.00° 645 ft / 197 m (AMSL)
33 DME ITBQ 110.10 MHz 18 nm / 33 km - - - 643 ft / 196 m (AMSL)